Time,TemperatureF,DewpointF,PressureIn,WindDirection,WindDirectionDegrees,WindSpeedMPH,WindSpeedGustMPH,Humidity,HourlyPrecipIn,Conditions,Clouds,dailyrainin,SoftwareType,DateUTC
2013-06-21 00:01:00,77.9,63.8,29.23,SE,135,0.0,0.0,62,0.00,,---,0.00,VWS V13.01,2013-06-21 05:01:00,
2013-06-21 00:06:00,77.9,63.8,29.23,ESE,112,0.0,0.0,62,0.00,,---,0.00,VWS V13.01,2013-06-21 05:06:00,
2013-06-21 00:11:00,77.7,63.7,29.23,SE,135,0.0,0.0,62,0.00,,---,0.00,VWS V13.01,2013-06-21 05:11:00,
2013-06-21 00:16:00,77.7,63.7,29.23,SE,135,0.0,0.0,62,0.00,,---,0.00,VWS V13.01,2013-06-21 05:16:00,
2013-06-21 00:21:00,77.7,63.7,29.22,SE,135,0.0,0.0,62,0.00,,---,0.00,VWS V13.01,2013-06-21 05:21:00,
2013-06-21 00:26:00,77.5,63.5,29.23,SE,135,0.0,0.0,62,0.00,,---,0.00,VWS V13.01,2013-06-21 05:26:00,
2013-06-21 00:31:00,77.5,63.5,29.22,SE,135,0.0,6.6,62,0.00,,---,0.00,VWS V13.01,2013-06-21 05:31:00,
2013-06-21 00:36:00,77.5,63.5,29.21,SE,135,7.6,7.6,62,0.00,,---,0.00,VWS V13.01,2013-06-21 05:36:00,
2013-06-21 00:41:00,77.5,63.9,29.20,SE,135,0.0,0.0,63,0.00,,---,0.00,VWS V13.01,2013-06-21 05:41:00,
2013-06-21 00:46:00,77.5,63.9,29.21,SSE,158,0.0,0.0,63,0.00,,---,0.00,VWS V13.01,2013-06-21 05:46:00,
2013-06-21 00:51:00,77.5,63.9,29.21,SE,135,0.0,0.0,63,0.00,,---,0.00,VWS V13.01,2013-06-21 05:51:00,
2013-06-21 00:56:00,77.5,63.9,29.21,SSE,158,1.2,11.6,63,0.00,,---,0.00,VWS V13.01,2013-06-21 05:56:00,
2013-06-21 01:01:00,77.5,63.9,29.20,SE,135,15.2,15.2,63,0.00,,---,0.00,VWS V13.01,2013-06-21 06:01:00,
2013-06-21 01:06:00,77.5,63.9,29.21,SE,135,0.0,0.0,63,0.00,,---,0.00,VWS V13.01,2013-06-21 06:06:00,
2013-06-21 01:11:00,77.5,63.9,29.21,SE,135,16.4,16.4,63,0.00,,---,0.00,VWS V13.01,2013-06-21 06:11:00,
2013-06-21 01:16:00,77.5,63.9,29.21,SE,135,0.0,11.0,63,0.00,,---,0.00,VWS V13.01,2013-06-21 06:16:00,
2013-06-21 01:21:00,77.7,64.1,29.21,ESE,112,0.0,0.0,63,0.00,,---,0.00,VWS V13.01,2013-06-21 06:21:00,
2013-06-21 01:26:00,77.7,64.1,29.21,SE,135,5.8,5.8,63,0.00,,---,0.00,VWS V13.01,2013-06-21 06:26:00,
2013-06-21 01:31:00,77.7,64.1,29.21,SE,135,0.0,0.0,63,0.00,,---,0.00,VWS V13.01,2013-06-21 06:31:00,
2013-06-21 01:36:00,77.7,64.1,29.20,SSE,158,0.0,0.0,63,0.00,,---,0.00,VWS V13.01,2013-06-21 06:36:00,
2013-06-21 01:41:00,77.7,64.1,29.20,SE,135,0.0,0.0,63,0.00,,---,0.00,VWS V13.01,2013-06-21 06:41:00,
2013-06-21 01:46:00,77.7,64.1,29.19,SE,135,0.0,10.2,63,0.00,,---,0.00,VWS V13.01,2013-06-21 06:46:00,
2013-06-21 01:51:00,77.5,63.9,29.19,SSE,158,12.4,12.4,63,0.00,,---,0.00,VWS V13.01,2013-06-21 06:51:00,
2013-06-21 01:56:00,77.5,63.9,29.19,SE,135,0.0,12.0,63,0.00,,---,0.00,VWS V13.01,2013-06-21 06:56:00,
2013-06-21 02:01:00,77.5,63.9,29.19,SE,135,5.2,16.4,63,0.00,,---,0.00,VWS V13.01,2013-06-21 07:01:00,
2013-06-21 02:06:00,77.5,64.4,29.19,SE,135,2.2,2.2,64,0.00,,---,0.00,VWS V13.01,2013-06-21 07:06:00,
2013-06-21 02:11:00,77.5,64.4,29.18,ESE,112,9.2,9.2,64,0.00,,---,0.00,VWS V13.01,2013-06-21 07:11:00,
2013-06-21 02:16:00,77.3,64.2,29.18,SE,135,0.0,13.4,64,0.00,,---,0.00,VWS V13.01,2013-06-21 07:16:00,
2013-06-21 02:21:00,77.3,64.2,29.17,SE,135,12.8,12.8,64,0.00,,---,0.00,VWS V13.01,2013-06-21 07:21:00,
2013-06-21 02:26:00,77.1,64.0,29.16,SE,135,9.2,19.2,64,0.00,,---,0.00,VWS V13.01,2013-06-21 07:26:00,
2013-06-21 02:31:00,77.1,64.0,29.16,SE,135,0.0,22.2,64,0.00,,---,0.00,VWS V13.01,2013-06-21 07:31:00,
2013-06-21 02:36:00,77.0,64.3,29.15,SE,135,1.6,1.6,65,0.00,,---,0.00,VWS V13.01,2013-06-21 07:36:00,
2013-06-21 02:41:00,77.0,64.3,29.15,SSE,158,17.0,17.0,65,0.00,,---,0.00,VWS V13.01,2013-06-21 07:41:00,
2013-06-21 02:46:00,76.8,64.2,29.15,SE,135,0.0,0.0,65,0.00,,---,0.00,VWS V13.01,2013-06-21 07:46:00,
2013-06-21 02:51:00,76.8,64.2,29.15,ESE,112,0.0,0.0,65,0.00,,---,0.00,VWS V13.01,2013-06-21 07:51:00,
2013-06-21 02:56:00,76.8,64.6,29.16,SSE,158,0.0,13.8,66,0.00,,---,0.00,VWS V13.01,2013-06-21 07:56:00,
2013-06-21 03:01:00,76.6,64.4,29.16,SE,135,8.0,8.0,66,0.00,,---,0.00,VWS V13.01,2013-06-21 08:01:00,
2013-06-21 03:06:00,76.6,64.4,29.17,SE,135,0.4,0.4,66,0.00,,---,0.00,VWS V13.01,2013-06-21 08:06:00,
2013-06-21 03:11:00,76.6,64.4,29.17,SE,135,0.0,0.0,66,0.00,,---,0.00,VWS V13.01,2013-06-21 08:11:00,
2013-06-21 03:16:00,76.6,64.4,29.17,SE,135,10.6,10.6,66,0.00,,---,0.00,VWS V13.01,2013-06-21 08:16:00,
2013-06-21 03:21:00,76.6,64.4,29.17,ESE,112,0.0,0.0,66,0.00,,---,0.00,VWS V13.01,2013-06-21 08:21:00,
2013-06-21 03:26:00,76.4,64.6,29.16,SE,135,0.0,0.0,67,0.00,,---,0.00,VWS V13.01,2013-06-21 08:26:00,
2013-06-21 03:31:00,76.4,64.6,29.15,SE,135,12.0,12.0,67,0.00,,---,0.00,VWS V13.01,2013-06-21 08:31:00,
2013-06-21 03:36:00,76.2,64.4,29.15,SSE,158,0.0,0.0,67,0.00,,---,0.00,VWS V13.01,2013-06-21 08:36:00,
2013-06-21 03:41:00,76.2,64.4,29.15,SSE,158,8.4,8.4,67,0.00,,---,0.00,VWS V13.01,2013-06-21 08:41:00,
2013-06-21 03:46:00,76.2,64.4,29.16,SSE,158,9.2,9.2,67,0.00,,---,0.00,VWS V13.01,2013-06-21 08:46:00,
2013-06-21 03:51:00,76.2,64.9,29.15,SE,135,0.0,0.0,68,0.00,,---,0.00,VWS V13.01,2013-06-21 08:51:00,
2013-06-21 03:56:00,75.9,65.0,29.15,SSE,158,0.0,3.0,69,0.00,,---,0.00,VWS V13.01,2013-06-21 08:56:00,
2013-06-21 04:01:00,75.9,65.0,29.15,SE,135,7.0,7.0,69,0.00,,---,0.00,VWS V13.01,2013-06-21 09:01:00,
2013-06-21 04:06:00,75.7,65.2,29.16,SE,135,0.0,0.0,70,0.00,,---,0.00,VWS V13.01,2013-06-21 09:06:00,
2013-06-21 04:11:00,75.3,64.8,29.16,SE,135,0.0,0.0,70,0.00,,---,0.00,VWS V13.01,2013-06-21 09:11:00,
2013-06-21 04:16:00,75.2,65.2,29.16,SE,135,8.0,8.0,71,0.00,,---,0.00,VWS V13.01,2013-06-21 09:16:00,
2013-06-21 04:21:00,75.0,65.0,29.15,SE,135,11.0,11.0,71,0.00,,---,0.00,VWS V13.01,2013-06-21 09:21:00,
2013-06-21 04:26:00,75.0,65.0,29.15,SE,135,0.0,3.0,71,0.00,,---,0.00,VWS V13.01,2013-06-21 09:26:00,
2013-06-21 04:31:00,75.0,65.0,29.15,SE,135,0.0,0.0,71,0.00,,---,0.00,VWS V13.01,2013-06-21 09:31:00,
2013-06-21 04:36:00,75.0,65.0,29.16,SE,135,0.0,0.0,71,0.00,,---,0.00,VWS V13.01,2013-06-21 09:36:00,
2013-06-21 04:41:00,74.8,64.8,29.16,SSE,158,0.0,0.0,71,0.00,,---,0.00,VWS V13.01,2013-06-21 09:41:00,
2013-06-21 04:46:00,74.8,64.8,29.16,SE,135,0.0,0.0,71,0.00,,---,0.00,VWS V13.01,2013-06-21 09:46:00,
2013-06-21 04:51:00,74.8,65.2,29.15,SE,135,0.0,0.0,72,0.00,,---,0.00,VWS V13.01,2013-06-21 09:51:00,
2013-06-21 04:56:00,74.8,65.6,29.16,SSE,158,12.0,12.0,73,0.00,,---,0.00,VWS V13.01,2013-06-21 09:56:00,
2013-06-21 05:01:00,74.8,65.6,29.15,SE,135,0.0,0.0,73,0.00,,---,0.00,VWS V13.01,2013-06-21 10:01:00,
2013-06-21 05:06:00,74.8,65.6,29.16,SSE,158,0.0,0.0,73,0.00,,---,0.00,VWS V13.01,2013-06-21 10:06:00,
2013-06-21 05:11:00,74.4,65.2,29.15,SE,135,0.0,0.0,73,0.00,,---,0.00,VWS V13.01,2013-06-21 10:11:00,
2013-06-21 05:16:00,74.4,65.6,29.14,SSE,158,5.8,5.8,74,0.00,,---,0.00,VWS V13.01,2013-06-21 10:16:00,
2013-06-21 05:21:00,74.4,65.6,29.14,SE,135,0.0,0.0,74,0.00,,---,0.00,VWS V13.01,2013-06-21 10:21:00,
2013-06-21 05:26:00,74.3,65.5,29.13,SE,135,0.0,0.0,74,0.00,,---,0.00,VWS V13.01,2013-06-21 10:26:00,
2013-06-21 05:31:00,74.3,65.5,29.13,South,180,10.6,10.6,74,0.00,,---,0.00,VWS V13.01,2013-06-21 10:31:00,
2013-06-21 05:36:00,74.3,65.5,29.13,SSW,202,0.0,0.0,74,0.00,,---,0.00,VWS V13.01,2013-06-21 10:36:00,
2013-06-21 05:41:00,74.3,65.9,29.14,SSW,202,0.0,0.0,75,0.00,,---,0.00,VWS V13.01,2013-06-21 10:41:00,
2013-06-21 05:46:00,74.3,65.9,29.14,SSE,158,0.0,0.0,75,0.00,,---,0.00,VWS V13.01,2013-06-21 10:46:00,
2013-06-21 05:51:00,74.3,65.9,29.14,SSE,158,0.0,0.0,75,0.00,,---,0.00,VWS V13.01,2013-06-21 10:51:00,
2013-06-21 05:56:00,74.3,65.9,29.14,SE,135,0.0,0.0,75,0.00,,---,0.00,VWS V13.01,2013-06-21 10:56:00,
2013-06-21 06:01:00,74.3,65.9,29.15,SSE,158,0.0,0.0,75,0.00,,---,0.00,VWS V13.01,2013-06-21 11:01:00,
2013-06-21 06:06:00,74.4,66.0,29.16,SSW,202,0.0,0.0,75,0.00,,---,0.00,VWS V13.01,2013-06-21 11:06:00,
2013-06-21 06:11:00,74.4,66.0,29.18,NNW,338,13.4,13.4,75,0.00,,---,0.00,VWS V13.01,2013-06-21 11:11:00,
2013-06-21 06:16:00,74.1,64.9,29.18,NNW,338,4.4,4.4,73,0.00,,---,0.00,VWS V13.01,2013-06-21 11:16:00,
2013-06-21 06:21:00,74.1,64.5,29.20,NW,315,18.2,18.2,72,0.00,,---,0.00,VWS V13.01,2013-06-21 11:21:00,
2013-06-21 06:26:00,72.3,63.2,29.23,NW,315,23.2,25.0,73,0.00,,---,0.00,VWS V13.01,2013-06-21 11:26:00,
2013-06-21 06:31:00,70.5,62.2,29.22,NNE,22,0.0,0.0,75,0.00,,---,0.00,VWS V13.01,2013-06-21 11:31:00,
2013-06-21 06:36:00,69.0,61.1,29.23,NW,315,9.2,9.2,76,0.10,,---,0.10,VWS V13.01,2013-06-21 11:36:00,
2013-06-21 06:41:00,67.2,60.1,29.21,NNW,338,0.0,0.0,78,0.32,,---,0.33,VWS V13.01,2013-06-21 11:41:00,
2013-06-21 06:46:00,66.5,60.2,29.22,North,0,0.0,0.0,80,0.35,,---,0.35,VWS V13.01,2013-06-21 11:46:00,
2013-06-21 06:51:00,66.0,59.7,29.21,North,0,0.0,0.0,80,0.35,,---,0.35,VWS V13.01,2013-06-21 11:51:00,
2013-06-21 06:56:00,65.8,59.8,29.22,NNE,22,0.0,0.0,81,0.39,,---,0.39,VWS V13.01,2013-06-21 11:56:00,
2013-06-21 07:01:00,65.8,59.8,29.21,NNE,22,0.0,0.0,81,0.39,,---,0.39,VWS V13.01,2013-06-21 12:01:00,
2013-06-21 07:06:00,65.8,60.2,29.22,NNE,22,0.0,0.0,82,0.39,,---,0.39,VWS V13.01,2013-06-21 12:06:00,
2013-06-21 07:11:00,65.8,60.2,29.22,NNE,22,0.0,0.0,82,0.39,,---,0.39,VWS V13.01,2013-06-21 12:11:00,
2013-06-21 07:16:00,65.8,60.2,29.22,NNE,22,0.0,0.0,82,0.39,,---,0.39,VWS V13.01,2013-06-21 12:16:00,
2013-06-21 07:21:00,65.8,60.2,29.22,NNE,22,0.0,0.0,82,0.41,,---,0.41,VWS V13.01,2013-06-21 12:21:00,
2013-06-21 07:26:00,65.8,60.2,29.20,NNE,22,0.0,0.0,82,0.41,,---,0.41,VWS V13.01,2013-06-21 12:26:00,
2013-06-21 07:31:00,66.0,60.3,29.20,NNE,22,0.0,0.0,82,0.43,,---,0.43,VWS V13.01,2013-06-21 12:31:00,
2013-06-21 07:36:00,66.0,60.3,29.21,NNE,22,0.0,0.0,82,0.18,,---,0.43,VWS V13.01,2013-06-21 12:36:00,
2013-06-21 07:41:00,66.0,60.3,29.22,NNE,22,0.0,0.0,82,0.10,,---,0.43,VWS V13.01,2013-06-21 12:41:00,
2013-06-21 07:46:00,66.0,60.3,29.24,East,90,0.0,0.0,82,0.08,,---,0.43,VWS V13.01,2013-06-21 12:46:00,
2013-06-21 07:51:00,66.0,60.3,29.23,East,90,0.0,0.0,82,0.06,,---,0.43,VWS V13.01,2013-06-21 12:51:00,
2013-06-21 07:56:00,66.0,60.3,29.23,East,90,0.0,0.0,82,0.08,,---,0.47,VWS V13.01,2013-06-21 12:56:00,
2013-06-21 08:01:00,65.8,60.2,29.21,East,90,0.0,0.0,82,0.12,,---,0.51,VWS V13.01,2013-06-21 13:01:00,
2013-06-21 08:06:00,65.8,60.2,29.22,East,90,0.0,0.0,82,0.14,,---,0.53,VWS V13.01,2013-06-21 13:06:00,
2013-06-21 08:11:00,66.0,60.3,29.21,East,90,0.0,0.0,82,0.20,,---,0.59,VWS V13.01,2013-06-21 13:11:00,
2013-06-21 08:16:00,66.0,60.3,29.22,SE,135,0.0,0.0,82,0.20,,---,0.59,VWS V13.01,2013-06-21 13:16:00,
2013-06-21 08:21:00,65.8,60.2,29.22,SE,135,0.0,0.0,82,0.18,,---,0.59,VWS V13.01,2013-06-21 13:21:00,
2013-06-21 08:26:00,65.8,60.5,29.23,SSE,158,0.0,0.0,83,0.16,,---,0.59,VWS V13.01,2013-06-21 13:26:00,
2013-06-21 08:31:00,65.8,60.5,29.24,SW,225,0.0,0.0,83,0.16,,---,0.59,VWS V13.01,2013-06-21 13:31:00,
2013-06-21 08:36:00,65.8,60.5,29.24,SE,135,0.0,0.0,83,0.16,,---,0.59,VWS V13.01,2013-06-21 13:36:00,
2013-06-21 08:41:00,65.4,60.1,29.23,SE,135,0.0,0.0,83,0.18,,---,0.61,VWS V13.01,2013-06-21 13:41:00,
2013-06-21 08:46:00,65.4,60.5,29.22,SE,135,0.0,0.0,84,0.20,,---,0.63,VWS V13.01,2013-06-21 13:46:00,
2013-06-21 08:51:00,65.4,60.5,29.21,SE,135,0.0,0.0,84,0.16,,---,0.63,VWS V13.01,2013-06-21 13:51:00,
2013-06-21 08:56:00,65.4,60.1,29.21,SE,135,0.0,0.0,83,0.14,,---,0.63,VWS V13.01,2013-06-21 13:56:00,
2013-06-21 09:01:00,65.3,60.3,29.22,SE,135,0.0,0.0,84,0.12,,---,0.63,VWS V13.01,2013-06-21 14:01:00,
2013-06-21 09:06:00,65.3,60.3,29.23,SE,135,0.0,0.0,84,0.06,,---,0.63,VWS V13.01,2013-06-21 14:06:00,
2013-06-21 09:11:00,65.3,60.3,29.24,SE,135,0.0,0.0,84,0.04,,---,0.63,VWS V13.01,2013-06-21 14:11:00,
2013-06-21 09:16:00,65.3,60.3,29.25,SE,135,0.0,0.0,84,0.04,,---,0.63,VWS V13.01,2013-06-21 14:16:00,
2013-06-21 09:21:00,65.3,60.3,29.25,SE,135,0.0,0.0,84,0.04,,---,0.63,VWS V13.01,2013-06-21 14:21:00,
2013-06-21 09:26:00,65.1,60.2,29.28,SE,135,0.0,0.0,84,0.04,,---,0.63,VWS V13.01,2013-06-21 14:26:00,
2013-06-21 09:31:00,65.3,60.3,29.28,SSE,158,0.0,0.0,84,0.04,,---,0.63,VWS V13.01,2013-06-21 14:31:00,
2013-06-21 09:36:00,65.1,60.2,29.25,SSE,158,0.0,0.0,84,0.02,,---,0.63,VWS V13.01,2013-06-21 14:36:00,
2013-06-21 09:42:00,65.1,60.2,29.23,South,180,0.0,0.0,84,0.08,,---,0.71,VWS V13.01,2013-06-21 14:42:00,
2013-06-21 09:47:00,64.9,60.3,29.22,SSE,158,0.0,0.0,85,0.10,,---,0.73,VWS V13.01,2013-06-21 14:47:00,
2013-06-21 09:52:00,64.9,60.3,29.23,SE,135,0.0,0.0,85,0.10,,---,0.73,VWS V13.01,2013-06-21 14:52:00,
2013-06-21 09:57:00,64.9,60.3,29.22,SE,135,0.0,0.0,85,0.10,,---,0.73,VWS V13.01,2013-06-21 14:57:00,
2013-06-21 10:02:00,64.9,60.3,29.22,ESE,112,0.0,0.0,85,0.10,,---,0.73,VWS V13.01,2013-06-21 15:02:00,
2013-06-21 10:08:00,64.7,60.1,29.19,SE,135,0.0,0.0,85,0.12,,---,0.75,VWS V13.01,2013-06-21 15:08:00,
2013-06-21 10:13:00,64.7,60.1,29.19,East,90,0.0,0.0,85,0.12,,---,0.75,VWS V13.01,2013-06-21 15:13:00,
2013-06-21 10:18:00,64.5,59.9,29.20,ESE,112,0.0,0.0,85,0.12,,---,0.75,VWS V13.01,2013-06-21 15:18:00,
2013-06-21 10:23:00,64.5,59.9,29.22,SSE,158,0.0,0.0,85,0.12,,---,0.75,VWS V13.01,2013-06-21 15:23:00,
2013-06-21 10:28:00,64.5,59.9,29.21,SE,135,0.0,0.0,85,0.12,,---,0.75,VWS V13.01,2013-06-21 15:28:00,
2013-06-21 10:33:00,64.5,59.9,29.21,SSE,158,0.0,0.0,85,0.12,,---,0.75,VWS V13.01,2013-06-21 15:33:00,
2013-06-21 10:38:00,64.5,59.9,29.22,SSE,158,0.0,0.0,85,0.04,,---,0.75,VWS V13.01,2013-06-21 15:38:00,
2013-06-21 10:43:00,64.5,59.9,29.21,ESE,112,0.0,0.0,85,0.02,,---,0.75,VWS V13.01,2013-06-21 15:43:00,
2013-06-21 10:48:00,64.5,59.9,29.19,SE,135,0.0,0.0,85,0.02,,---,0.75,VWS V13.01,2013-06-21 15:48:00,
2013-06-21 10:53:00,64.7,60.1,29.23,SE,135,0.0,0.0,85,0.02,,---,0.75,VWS V13.01,2013-06-21 15:53:00,
2013-06-21 10:58:00,64.9,60.3,29.22,SSE,158,0.0,0.0,85,0.02,,---,0.75,VWS V13.01,2013-06-21 15:58:00,
2013-06-21 11:03:00,65.1,60.5,29.24,SSE,158,0.0,0.0,85,0.00,,---,0.75,VWS V13.01,2013-06-21 16:03:00,
2013-06-21 11:08:00,65.3,60.7,29.23,SE,135,0.0,0.0,85,0.00,,---,0.75,VWS V13.01,2013-06-21 16:08:00,
2013-06-21 11:14:00,65.6,61.0,29.24,SE,135,0.0,0.0,85,0.00,,---,0.75,VWS V13.01,2013-06-21 16:14:00,
2013-06-21 11:20:00,66.0,61.4,29.24,SE,135,0.0,0.0,85,0.00,,---,0.75,VWS V13.01,2013-06-21 16:20:00,
2013-06-21 11:25:00,66.2,61.6,29.24,SE,135,4.8,4.8,85,0.00,,---,0.75,VWS V13.01,2013-06-21 16:25:00,
2013-06-21 11:30:00,66.3,61.3,29.23,SE,135,12.8,12.8,84,0.00,,---,0.75,VWS V13.01,2013-06-21 16:30:00,
2013-06-21 11:35:00,66.7,61.7,29.22,SE,135,4.0,28.0,84,0.00,,---,0.75,VWS V13.01,2013-06-21 16:35:00,
2013-06-21 11:40:00,66.7,61.7,29.21,SE,135,0.0,0.0,84,0.00,,---,0.75,VWS V13.01,2013-06-21 16:40:00,
2013-06-21 11:45:00,66.9,61.9,29.22,SE,135,12.4,12.4,84,0.00,,---,0.75,VWS V13.01,2013-06-21 16:45:00,
2013-06-21 11:50:00,67.6,62.6,29.21,SE,135,0.0,8.4,84,0.00,,---,0.75,VWS V13.01,2013-06-21 16:50:00,
2013-06-21 11:55:00,67.8,62.5,29.21,SE,135,12.4,12.4,83,0.00,,---,0.75,VWS V13.01,2013-06-21 16:55:00,
2013-06-21 12:00:00,68.1,62.8,29.21,SE,135,4.4,20.4,83,0.00,,---,0.75,VWS V13.01,2013-06-21 17:00:00,
2013-06-21 12:05:00,68.5,62.8,29.21,SSE,158,11.0,11.0,82,0.00,,---,0.75,VWS V13.01,2013-06-21 17:05:00,
2013-06-21 12:11:00,68.9,63.2,29.21,SSE,158,1.2,10.6,82,0.00,,---,0.75,VWS V13.01,2013-06-21 17:11:00,
2013-06-21 12:16:00,69.4,63.7,29.21,ESE,112,17.8,17.8,82,0.00,,---,0.75,VWS V13.01,2013-06-21 17:16:00,
2013-06-21 12:22:00,69.8,63.7,29.21,SSE,158,12.4,12.4,81,0.00,,---,0.75,VWS V13.01,2013-06-21 17:22:00,
2013-06-21 12:27:00,69.9,63.5,29.20,SE,135,9.2,9.2,80,0.00,,---,0.75,VWS V13.01,2013-06-21 17:27:00,
2013-06-21 12:32:00,70.3,63.8,29.20,SE,135,0.0,24.0,80,0.00,,---,0.75,VWS V13.01,2013-06-21 17:32:00,
2013-06-21 12:37:00,70.7,64.2,29.20,SSE,158,0.0,3.0,80,0.00,,---,0.75,VWS V13.01,2013-06-21 17:37:00,
2013-06-21 12:44:00,71.2,64.4,29.20,SE,135,0.0,0.0,79,0.00,,---,0.75,VWS V13.01,2013-06-21 17:44:00,
2013-06-21 12:46:00,71.4,64.6,29.20,SE,135,13.8,13.8,79,0.00,,---,0.75,VWS V13.01,2013-06-21 17:46:00,
2013-06-21 12:47:00,71.4,64.6,29.20,SE,135,13.8,13.8,79,0.00,,---,0.75,VWS V13.01,2013-06-21 17:47:00,
2013-06-21 12:48:00,71.7,64.8,29.20,SW,225,10.2,13.8,79,0.00,,---,0.75,VWS V13.01,2013-06-21 17:48:00,
2013-06-21 12:50:00,71.7,64.5,29.20,SSW,202,0.0,10.2,78,0.00,,---,0.75,VWS V13.01,2013-06-21 17:50:00,
2013-06-21 12:55:00,72.1,64.9,29.20,SSE,158,14.6,14.6,78,0.00,,---,0.75,VWS V13.01,2013-06-21 17:55:00,
2013-06-21 13:00:00,72.6,65.3,29.21,SE,135,0.0,7.0,78,0.00,,---,0.75,VWS V13.01,2013-06-21 18:00:00,
2013-06-21 13:06:00,73.2,65.9,29.20,South,180,12.8,12.8,78,0.00,,---,0.75,VWS V13.01,2013-06-21 18:06:00,
2013-06-21 13:11:00,73.7,66.1,29.20,SSE,158,0.0,12.0,77,0.00,,---,0.75,VWS V13.01,2013-06-21 18:11:00,
2013-06-21 13:16:00,74.1,66.1,29.20,WSW,248,20.0,20.0,76,0.00,,---,0.75,VWS V13.01,2013-06-21 18:16:00,
2013-06-21 13:22:00,74.8,66.7,29.20,SSW,202,15.2,15.2,76,0.00,,---,0.75,VWS V13.01,2013-06-21 18:22:00,
2013-06-21 13:24:00,75.0,66.6,29.20,South,180,0.4,15.2,75,0.00,,---,0.75,VWS V13.01,2013-06-21 18:24:00,
2013-06-21 13:25:00,75.0,66.6,29.20,South,180,0.4,0.4,75,0.00,,---,0.75,VWS V13.01,2013-06-21 18:25:00,
2013-06-21 13:26:00,75.2,66.7,29.20,SE,135,11.6,11.6,75,0.00,,---,0.75,VWS V13.01,2013-06-21 18:26:00,
2013-06-21 13:28:00,75.5,67.0,29.19,SE,135,3.0,11.6,75,0.00,,---,0.75,VWS V13.01,2013-06-21 18:28:00,
2013-06-21 13:33:00,76.1,67.2,29.19,SE,135,3.0,5.2,74,0.00,,---,0.75,VWS V13.01,2013-06-21 18:33:00,
2013-06-21 13:38:00,76.8,67.9,29.19,SSW,202,7.6,7.6,74,0.00,,---,0.75,VWS V13.01,2013-06-21 18:38:00,
2013-06-21 13:43:00,77.1,67.4,29.19,SSE,158,10.6,14.6,72,0.00,,---,0.75,VWS V13.01,2013-06-21 18:43:00,
2013-06-21 13:45:00,77.5,67.4,29.19,SSE,158,9.2,9.2,71,0.00,,---,0.75,VWS V13.01,2013-06-21 18:45:00,
2013-06-21 13:46:00,77.5,67.4,29.20,SSE,158,9.2,9.2,71,0.00,,---,0.75,VWS V13.01,2013-06-21 18:46:00,
2013-06-21 13:47:00,77.5,67.8,29.19,SSW,202,7.0,7.0,72,0.00,,---,0.75,VWS V13.01,2013-06-21 18:47:00,
2013-06-21 13:48:00,77.7,68.0,29.19,SSW,202,7.0,7.0,72,0.00,,---,0.75,VWS V13.01,2013-06-21 18:48:00,
2013-06-21 13:49:00,77.7,68.0,29.20,SSW,202,7.0,7.0,72,0.00,,---,0.75,VWS V13.01,2013-06-21 18:49:00,
2013-06-21 13:55:00,78.0,67.8,29.20,SSE,158,8.0,8.0,71,0.00,,---,0.75,VWS V13.01,2013-06-21 18:55:00,
2013-06-21 14:00:00,78.6,68.4,29.20,SSE,158,3.4,3.4,71,0.00,,---,0.75,VWS V13.01,2013-06-21 19:00:00,
2013-06-21 14:05:00,79.3,69.1,29.20,SE,135,0.0,14.6,71,0.00,,---,0.75,VWS V13.01,2013-06-21 19:05:00,
2013-06-21 14:11:00,80.4,69.3,29.19,South,180,0.0,0.0,69,0.00,,---,0.75,VWS V13.01,2013-06-21 19:11:00,
2013-06-21 14:17:00,80.7,69.2,29.19,SE,135,12.0,12.0,68,0.00,,---,0.75,VWS V13.01,2013-06-21 19:17:00,
2013-06-21 14:22:00,81.3,69.3,29.19,South,180,2.2,5.8,67,0.00,,---,0.75,VWS V13.01,2013-06-21 19:22:00,
2013-06-21 14:26:00,81.6,69.6,29.18,South,180,3.0,5.8,67,0.00,,---,0.75,VWS V13.01,2013-06-21 19:26:00,
2013-06-21 14:32:00,81.8,69.3,29.18,SE,135,11.0,11.0,66,0.00,,---,0.75,VWS V13.01,2013-06-21 19:32:00,
2013-06-21 14:37:00,81.8,68.9,29.18,SE,135,0.0,0.0,65,0.00,,---,0.75,VWS V13.01,2013-06-21 19:37:00,
2013-06-21 14:42:00,82.0,69.1,29.18,South,180,0.0,0.0,65,0.00,,---,0.75,VWS V13.01,2013-06-21 19:42:00,
2013-06-21 14:47:00,82.2,69.3,29.18,SSW,202,34.8,34.8,65,0.00,,---,0.75,VWS V13.01,2013-06-21 19:47:00,
2013-06-21 14:52:00,82.2,68.8,29.17,SE,135,0.0,17.0,64,0.00,,---,0.75,VWS V13.01,2013-06-21 19:52:00,
2013-06-21 14:57:00,82.2,68.8,29.18,SSW,202,0.0,0.0,64,0.00,,---,0.75,VWS V13.01,2013-06-21 19:57:00,
2013-06-21 15:02:00,82.5,69.1,29.17,South,180,21.0,22.2,64,0.00,,---,0.75,VWS V13.01,2013-06-21 20:02:00,
2013-06-21 15:07:00,82.5,69.1,29.17,SE,135,13.8,13.8,64,0.00,,---,0.75,VWS V13.01,2013-06-21 20:07:00,
2013-06-21 15:12:00,82.7,69.3,29.17,SW,225,0.0,0.0,64,0.00,,---,0.75,VWS V13.01,2013-06-21 20:12:00,
2013-06-21 15:13:00,82.9,69.5,29.17,SE,135,12.8,12.8,64,0.00,,---,0.75,VWS V13.01,2013-06-21 20:13:00,
2013-06-21 15:17:00,83.1,69.7,29.17,SSE,158,5.8,15.6,64,0.00,,---,0.75,VWS V13.01,2013-06-21 20:17:00,
2013-06-21 15:22:00,83.1,69.7,29.16,SSE,158,11.0,16.4,64,0.00,,---,0.75,VWS V13.01,2013-06-21 20:22:00,
2013-06-21 15:27:00,83.1,69.2,29.16,SW,225,13.4,13.4,63,0.00,,---,0.75,VWS V13.01,2013-06-21 20:27:00,
2013-06-21 15:32:00,83.4,69.9,29.16,East,90,17.0,19.2,64,0.00,,---,0.75,VWS V13.01,2013-06-21 20:32:00,
2013-06-21 15:37:00,83.8,70.3,29.15,SSE,158,12.8,16.0,64,0.00,,---,0.75,VWS V13.01,2013-06-21 20:37:00,
2013-06-21 15:42:00,84.2,70.7,29.15,SE,135,0.0,0.0,64,0.00,,---,0.75,VWS V13.01,2013-06-21 20:42:00,
2013-06-21 15:48:00,84.7,70.7,29.15,SE,135,0.0,0.0,63,0.00,,---,0.75,VWS V13.01,2013-06-21 20:48:00,
2013-06-21 15:53:00,85.1,71.1,29.14,SSE,158,24.0,24.0,63,0.00,,---,0.75,VWS V13.01,2013-06-21 20:53:00,
2013-06-21 15:58:00,85.2,70.7,29.13,SE,135,3.4,3.4,62,0.00,,---,0.75,VWS V13.01,2013-06-21 20:58:00,
2013-06-21 16:03:00,85.4,70.9,29.14,SSE,158,0.0,0.0,62,0.00,,---,0.75,VWS V13.01,2013-06-21 21:03:00,
2013-06-21 16:06:00,85.4,70.4,29.13,ESE,112,5.8,5.8,61,0.00,,---,0.75,VWS V13.01,2013-06-21 21:06:00,
2013-06-21 16:12:00,85.6,71.1,29.14,ESE,112,2.6,2.6,62,0.00,,---,0.75,VWS V13.01,2013-06-21 21:12:00,
2013-06-21 16:17:00,85.6,71.1,29.13,SE,135,15.2,15.2,62,0.00,,---,0.75,VWS V13.01,2013-06-21 21:17:00,
2013-06-21 16:23:00,85.8,70.8,29.14,SSE,158,0.0,0.0,61,0.00,,---,0.75,VWS V13.01,2013-06-21 21:23:00,
2013-06-21 16:28:00,85.8,71.3,29.12,SE,135,0.0,0.0,62,0.00,,---,0.75,VWS V13.01,2013-06-21 21:28:00,
2013-06-21 16:34:00,85.6,71.1,29.13,SE,135,21.4,21.4,62,0.00,,---,0.75,VWS V13.01,2013-06-21 21:34:00,
2013-06-21 16:39:00,85.4,70.9,29.13,SSE,158,13.8,17.8,62,0.00,,---,0.75,VWS V13.01,2013-06-21 21:39:00,
2013-06-21 16:44:00,85.2,70.7,29.14,SSE,158,0.0,0.0,62,0.00,,---,0.75,VWS V13.01,2013-06-21 21:44:00,
2013-06-21 16:49:00,85.2,70.7,29.15,SE,135,0.0,0.0,62,0.00,,---,0.75,VWS V13.01,2013-06-21 21:49:00,
2013-06-21 16:55:00,85.1,71.1,29.15,SSE,158,2.6,2.6,63,0.00,,---,0.75,VWS V13.01,2013-06-21 21:55:00,
2013-06-21 17:00:00,85.1,71.6,29.15,SE,135,14.6,14.6,64,0.00,,---,0.75,VWS V13.01,2013-06-21 22:00:00,
2013-06-21 17:05:00,84.9,71.4,29.14,SSE,158,14.6,14.6,64,0.00,,---,0.75,VWS V13.01,2013-06-21 22:05:00,
2013-06-21 17:10:00,84.9,71.4,29.15,South,180,0.0,0.0,64,0.00,,---,0.75,VWS V13.01,2013-06-21 22:10:00,
2013-06-21 17:15:00,84.9,71.4,29.15,SSE,158,0.0,5.2,64,0.00,,---,0.75,VWS V13.01,2013-06-21 22:15:00,
2013-06-21 17:20:00,84.7,71.2,29.17,South,180,0.0,0.0,64,0.00,,---,0.75,VWS V13.01,2013-06-21 22:20:00,
2013-06-21 17:25:00,84.7,71.2,29.17,South,180,0.0,0.0,64,0.00,,---,0.75,VWS V13.01,2013-06-21 22:25:00,
2013-06-21 17:30:00,84.5,71.4,29.17,South,180,0.0,0.0,65,0.00,,---,0.75,VWS V13.01,2013-06-21 22:30:00,
2013-06-21 17:36:00,84.3,71.3,29.16,SE,135,0.0,0.0,65,0.00,,---,0.75,VWS V13.01,2013-06-21 22:36:00,
2013-06-21 17:41:00,84.2,71.2,29.17,SSE,158,0.0,0.0,65,0.00,,---,0.75,VWS V13.01,2013-06-21 22:41:00,
2013-06-21 17:46:00,84.0,71.0,29.18,South,180,5.8,5.8,65,0.00,,---,0.75,VWS V13.01,2013-06-21 22:46:00,
2013-06-21 17:51:00,84.0,71.0,29.17,SE,135,0.0,0.0,65,0.00,,---,0.75,VWS V13.01,2013-06-21 22:51:00,
2013-06-21 17:56:00,83.6,70.6,29.17,SE,135,5.8,12.4,65,0.00,,---,0.75,VWS V13.01,2013-06-21 22:56:00,
2013-06-21 18:01:00,83.4,70.4,29.17,SE,135,0.0,0.0,65,0.00,,---,0.75,VWS V13.01,2013-06-21 23:01:00,
2013-06-21 18:06:00,83.1,70.1,29.17,South,180,0.0,0.0,65,0.00,,---,0.75,VWS V13.01,2013-06-21 23:06:00,
2013-06-21 18:11:00,82.9,70.4,29.17,ESE,112,0.0,0.0,66,0.00,,---,0.75,VWS V13.01,2013-06-21 23:11:00,
2013-06-21 18:16:00,82.9,70.4,29.17,SE,135,0.0,0.0,66,0.00,,---,0.75,VWS V13.01,2013-06-21 23:16:00,
2013-06-21 18:21:00,82.5,70.0,29.19,SE,135,0.0,0.0,66,0.00,,---,0.75,VWS V13.01,2013-06-21 23:21:00,
2013-06-21 18:26:00,82.2,69.7,29.19,SE,135,0.0,0.0,66,0.00,,---,0.75,VWS V13.01,2013-06-21 23:26:00,
2013-06-21 18:31:00,82.2,70.2,29.20,ESE,112,0.0,0.0,67,0.00,,---,0.75,VWS V13.01,2013-06-21 23:31:00,
2013-06-21 18:36:00,82.0,70.0,29.20,ESE,112,0.0,0.0,67,0.00,,---,0.75,VWS V13.01,2013-06-21 23:36:00,
2013-06-21 18:41:00,82.0,70.4,29.20,ESE,112,0.0,0.0,68,0.00,,---,0.75,VWS V13.01,2013-06-21 23:41:00,
2013-06-21 18:46:00,81.6,70.0,29.21,ESE,112,0.0,0.0,68,0.00,,---,0.75,VWS V13.01,2013-06-21 23:46:00,
2013-06-21 18:51:00,81.6,70.0,29.21,ESE,112,0.0,0.0,68,0.00,,---,0.75,VWS V13.01,2013-06-21 23:51:00,
2013-06-21 18:56:00,81.6,70.0,29.21,ESE,112,0.0,0.0,68,0.00,,---,0.75,VWS V13.01,2013-06-21 23:56:00,
2013-06-21 19:01:00,81.5,70.4,29.20,ESE,112,0.0,0.0,69,0.00,,---,0.75,VWS V13.01,2013-06-22 00:01:00,
2013-06-21 19:06:00,81.5,70.4,29.21,ESE,112,0.0,0.0,69,0.00,,---,0.75,VWS V13.01,2013-06-22 00:06:00,
2013-06-21 19:11:00,81.3,70.2,29.21,ESE,112,0.0,0.0,69,0.00,,---,0.75,VWS V13.01,2013-06-22 00:11:00,
2013-06-21 19:16:00,81.3,70.2,29.21,ESE,112,0.0,0.0,69,0.00,,---,0.75,VWS V13.01,2013-06-22 00:16:00,
2013-06-21 19:21:00,81.3,70.2,29.20,ESE,112,0.0,0.0,69,0.00,,---,0.75,VWS V13.01,2013-06-22 00:21:00,
2013-06-21 19:26:00,81.1,70.0,29.21,ESE,112,0.0,0.0,69,0.00,,---,0.75,VWS V13.01,2013-06-22 00:26:00,
2013-06-21 19:31:00,81.1,70.4,29.20,SE,135,0.0,0.0,70,0.00,,---,0.75,VWS V13.01,2013-06-22 00:31:00,
2013-06-21 19:36:00,80.9,70.2,29.20,SE,135,0.0,0.0,70,0.00,,---,0.75,VWS V13.01,2013-06-22 00:36:00,
2013-06-21 19:41:00,80.7,70.0,29.20,SE,135,0.0,0.0,70,0.00,,---,0.75,VWS V13.01,2013-06-22 00:41:00,
2013-06-21 19:46:00,80.7,70.4,29.20,SE,135,0.0,0.0,71,0.00,,---,0.75,VWS V13.01,2013-06-22 00:46:00,
2013-06-21 19:51:00,80.6,70.3,29.20,SE,135,0.0,0.0,71,0.00,,---,0.75,VWS V13.01,2013-06-22 00:51:00,
2013-06-21 19:56:00,80.4,70.1,29.20,SE,135,0.0,0.0,71,0.00,,---,0.75,VWS V13.01,2013-06-22 00:56:00,
2013-06-21 20:01:00,80.4,70.6,29.21,SE,135,0.0,0.0,72,0.00,,---,0.75,VWS V13.01,2013-06-22 01:01:00,
2013-06-21 20:06:00,80.2,70.4,29.21,SE,135,0.0,0.0,72,0.00,,---,0.75,VWS V13.01,2013-06-22 01:06:00,
2013-06-21 20:12:00,80.2,70.4,29.21,SE,135,0.0,0.0,72,0.00,,---,0.75,VWS V13.01,2013-06-22 01:12:00,
2013-06-21 20:17:00,79.8,70.0,29.21,SE,135,0.0,0.0,72,0.00,,---,0.75,VWS V13.01,2013-06-22 01:17:00,
2013-06-21 20:22:00,79.7,69.9,29.22,SE,135,0.0,0.0,72,0.00,,---,0.75,VWS V13.01,2013-06-22 01:22:00,
2013-06-21 20:27:00,79.5,70.1,29.22,SE,135,0.0,0.0,73,0.00,,---,0.75,VWS V13.01,2013-06-22 01:27:00,
2013-06-21 20:32:00,79.3,70.3,29.23,SE,135,0.0,0.0,74,0.00,,---,0.75,VWS V13.01,2013-06-22 01:32:00,
2013-06-21 20:37:00,78.9,70.3,29.23,SE,135,0.0,0.0,75,0.00,,---,0.75,VWS V13.01,2013-06-22 01:37:00,
2013-06-21 20:42:00,78.6,70.4,29.23,East,90,0.0,0.0,76,0.00,,---,0.75,VWS V13.01,2013-06-22 01:42:00,
2013-06-21 20:47:00,78.0,70.2,29.23,NNE,22,0.0,0.0,77,0.00,,---,0.75,VWS V13.01,2013-06-22 01:47:00,
2013-06-21 20:52:00,77.9,70.1,29.22,NNE,22,0.0,0.0,77,0.00,,---,0.75,VWS V13.01,2013-06-22 01:52:00,
2013-06-21 20:57:00,77.7,70.3,29.22,NNE,22,0.0,0.0,78,0.00,,---,0.75,VWS V13.01,2013-06-22 01:57:00,
2013-06-21 21:02:00,77.5,70.1,29.21,NNE,22,0.0,0.0,78,0.00,,---,0.75,VWS V13.01,2013-06-22 02:02:00,
2013-06-21 21:07:00,77.5,70.1,29.20,NNE,22,0.0,0.0,78,0.00,,---,0.75,VWS V13.01,2013-06-22 02:07:00,
2013-06-21 21:12:00,77.5,70.1,29.20,NNE,22,0.0,0.0,78,0.00,,---,0.75,VWS V13.01,2013-06-22 02:12:00,
2013-06-21 21:17:00,77.1,69.3,29.20,NNE,22,0.0,0.0,77,0.00,,---,0.75,VWS V13.01,2013-06-22 02:17:00,
2013-06-21 21:22:00,77.1,69.3,29.19,NNE,22,0.0,0.0,77,0.00,,---,0.75,VWS V13.01,2013-06-22 02:22:00,
2013-06-21 21:27:00,77.1,69.3,29.18,NNE,22,0.0,0.0,77,0.00,,---,0.75,VWS V13.01,2013-06-22 02:27:00,
2013-06-21 21:32:00,76.8,69.4,29.19,East,90,0.0,0.0,78,0.00,,---,0.75,VWS V13.01,2013-06-22 02:32:00,
2013-06-21 21:37:00,76.8,69.4,29.19,ESE,112,0.0,0.0,78,0.00,,---,0.75,VWS V13.01,2013-06-22 02:37:00,
2013-06-21 21:42:00,76.8,69.4,29.19,ESE,112,0.0,0.0,78,0.00,,---,0.75,VWS V13.01,2013-06-22 02:42:00,
2013-06-21 21:47:00,76.6,69.2,29.20,ESE,112,0.0,0.0,78,0.00,,---,0.75,VWS V13.01,2013-06-22 02:47:00,
2013-06-21 21:52:00,76.6,69.2,29.20,ESE,112,0.0,0.0,78,0.00,,---,0.75,VWS V13.01,2013-06-22 02:52:00,
2013-06-21 21:57:00,76.6,69.6,29.20,ESE,112,0.0,0.0,79,0.00,,---,0.75,VWS V13.01,2013-06-22 02:57:00,
2013-06-21 22:02:00,76.4,69.4,29.20,SE,135,7.0,7.0,79,0.00,,---,0.75,VWS V13.01,2013-06-22 03:02:00,
2013-06-21 22:07:00,76.2,69.2,29.20,SE,135,0.0,0.0,79,0.00,,---,0.75,VWS V13.01,2013-06-22 03:07:00,
2013-06-21 22:12:00,76.2,69.2,29.21,ESE,112,0.0,0.0,79,0.00,,---,0.75,VWS V13.01,2013-06-22 03:12:00,
2013-06-21 22:17:00,76.1,69.1,29.21,ESE,112,0.0,0.0,79,0.00,,---,0.75,VWS V13.01,2013-06-22 03:17:00,
2013-06-21 22:22:00,76.1,69.1,29.21,ESE,112,0.0,0.0,79,0.00,,---,0.75,VWS V13.01,2013-06-22 03:22:00,
2013-06-21 22:27:00,75.9,68.9,29.21,ESE,112,0.0,0.0,79,0.00,,---,0.75,VWS V13.01,2013-06-22 03:27:00,
2013-06-21 22:32:00,75.9,69.3,29.21,SE,135,0.0,0.0,80,0.00,,---,0.75,VWS V13.01,2013-06-22 03:32:00,
2013-06-21 22:37:00,75.9,69.3,29.21,SE,135,0.0,0.0,80,0.00,,---,0.75,VWS V13.01,2013-06-22 03:37:00,
2013-06-21 22:42:00,75.7,69.1,29.21,SE,135,0.0,0.0,80,0.00,,---,0.75,VWS V13.01,2013-06-22 03:42:00,
2013-06-21 22:47:00,75.7,69.1,29.21,ESE,112,0.0,0.0,80,0.00,,---,0.75,VWS V13.01,2013-06-22 03:47:00,
2013-06-21 22:52:00,75.7,69.1,29.21,SE,135,0.0,0.0,80,0.00,,---,0.75,VWS V13.01,2013-06-22 03:52:00,
2013-06-21 22:57:00,75.5,68.9,29.22,SE,135,0.0,0.0,80,0.00,,---,0.75,VWS V13.01,2013-06-22 03:57:00,
2013-06-21 23:01:00,75.3,68.7,29.22,SE,135,0.0,0.0,80,0.00,,---,0.75,VWS V13.01,2013-06-22 04:01:00,
2013-06-21 23:03:00,75.3,68.7,29.22,SE,135,0.0,0.0,80,0.00,,---,0.75,VWS V13.01,2013-06-22 04:03:00,
2013-06-21 23:04:00,75.3,68.7,29.22,SE,135,0.0,0.0,80,0.00,,---,0.75,VWS V13.01,2013-06-22 04:04:00,
2013-06-21 23:09:00,75.3,69.1,29.21,SE,135,0.0,0.0,81,0.00,,---,0.75,VWS V13.01,2013-06-22 04:09:00,
2013-06-21 23:10:00,75.3,69.1,29.22,SE,135,0.0,0.0,81,0.00,,---,0.75,VWS V13.01,2013-06-22 04:10:00,
2013-06-21 23:11:00,75.3,69.1,29.22,SE,135,0.0,0.0,81,0.00,,---,0.75,VWS V13.01,2013-06-22 04:11:00,
2013-06-21 23:17:00,75.3,69.1,29.21,SE,135,0.0,0.0,81,0.00,,---,0.75,VWS V13.01,2013-06-22 04:17:00,
2013-06-21 23:22:00,75.3,69.1,29.20,SE,135,0.0,0.0,81,0.00,,---,0.75,VWS V13.01,2013-06-22 04:22:00,
2013-06-21 23:27:00,75.2,69.0,29.20,SE,135,0.0,0.0,81,0.00,,---,0.75,VWS V13.01,2013-06-22 04:27:00,
2013-06-21 23:32:00,75.0,68.8,29.20,SE,135,0.0,0.0,81,0.00,,---,0.75,VWS V13.01,2013-06-22 04:32:00,
2013-06-21 23:37:00,75.0,68.8,29.19,SE,135,0.0,0.0,81,0.00,,---,0.75,VWS V13.01,2013-06-22 04:37:00,
2013-06-21 23:43:00,75.0,68.4,29.18,ESE,112,0.0,0.0,80,0.00,,---,0.75,VWS V13.01,2013-06-22 04:43:00,
2013-06-21 23:48:00,74.8,68.2,29.19,ESE,112,0.0,0.0,80,0.00,,---,0.75,VWS V13.01,2013-06-22 04:48:00,
2013-06-21 23:53:00,74.8,68.2,29.18,SE,135,0.0,0.0,80,0.00,,---,0.75,VWS V13.01,2013-06-22 04:53:00,
2013-06-21 23:58:00,74.4,67.8,29.18,SE,135,0.0,0.0,80,0.00,,---,0.75,VWS V13.01,2013-06-22 04:58:00,